sensor_id;sensor_type;location;lat;lon;timestamp;P1;durP1;ratioP1;P2;durP2;ratioP2
79243;SDS011;68672;42.676;23.356;2023-05-14T00:01:41;4.35;;;2.60;;
79243;SDS011;68672;42.676;23.356;2023-05-14T00:04:07;4.20;;;3.30;;
79243;SDS011;68672;42.676;23.356;2023-05-14T00:06:32;4.80;;;3.30;;
79243;SDS011;68672;42.676;23.356;2023-05-14T00:08:58;3.22;;;2.38;;
79243;SDS011;68672;42.676;23.356;2023-05-14T00:11:23;3.90;;;3.03;;
79243;SDS011;68672;42.676;23.356;2023-05-14T00:13:49;3.15;;;2.53;;
79243;SDS011;68672;42.676;23.356;2023-05-14T00:16:14;3.92;;;2.72;;
79243;SDS011;68672;42.676;23.356;2023-05-14T00:18:40;3.13;;;2.42;;
79243;SDS011;68672;42.676;23.356;2023-05-14T00:21:06;3.58;;;2.85;;
79243;SDS011;68672;42.676;23.356;2023-05-14T00:23:31;3.60;;;2.30;;
79243;SDS011;68672;42.676;23.356;2023-05-14T00:25:57;5.05;;;3.20;;
79243;SDS011;68672;42.676;23.356;2023-05-14T00:28:22;3.75;;;2.90;;
79243;SDS011;68672;42.676;23.356;2023-05-14T00:30:47;5.25;;;2.65;;
79243;SDS011;68672;42.676;23.356;2023-05-14T00:33:13;3.42;;;2.55;;
79243;SDS011;68672;42.676;23.356;2023-05-14T00:35:38;2.40;;;2.08;;
79243;SDS011;68672;42.676;23.356;2023-05-14T00:38:04;5.03;;;2.80;;
79243;SDS011;68672;42.676;23.356;2023-05-14T00:40:29;4.03;;;3.20;;
79243;SDS011;68672;42.676;23.356;2023-05-14T00:42:55;4.53;;;2.78;;
79243;SDS011;68672;42.676;23.356;2023-05-14T00:45:21;3.75;;;2.40;;
79243;SDS011;68672;42.676;23.356;2023-05-14T00:47:47;3.25;;;2.55;;
79243;SDS011;68672;42.676;23.356;2023-05-14T00:50:13;4.10;;;2.92;;
79243;SDS011;68672;42.676;23.356;2023-05-14T00:52:40;3.25;;;2.88;;
79243;SDS011;68672;42.676;23.356;2023-05-14T00:55:06;3.88;;;2.72;;
79243;SDS011;68672;42.676;23.356;2023-05-14T00:57:35;4.78;;;2.78;;
79243;SDS011;68672;42.676;23.356;2023-05-14T01:00:01;3.85;;;2.80;;
79243;SDS011;68672;42.676;23.356;2023-05-14T01:02:28;4.00;;;3.17;;
79243;SDS011;68672;42.676;23.356;2023-05-14T01:04:53;4.80;;;2.70;;
79243;SDS011;68672;42.676;23.356;2023-05-14T01:07:26;3.90;;;2.90;;
79243;SDS011;68672;42.676;23.356;2023-05-14T01:17:45;3.53;;;2.42;;
79243;SDS011;68672;42.676;23.356;2023-05-14T01:20:19;2.70;;;1.98;;
79243;SDS011;68672;42.676;23.356;2023-05-14T01:22:45;2.60;;;2.40;;
79243;SDS011;68672;42.676;23.356;2023-05-14T01:25:10;4.57;;;2.85;;
79243;SDS011;68672;42.676;23.356;2023-05-14T01:27:42;3.67;;;1.90;;
79243;SDS011;68672;42.676;23.356;2023-05-14T01:30:28;3.08;;;2.28;;
79243;SDS011;68672;42.676;23.356;2023-05-14T01:33:09;2.60;;;2.33;;
79243;SDS011;68672;42.676;23.356;2023-05-14T01:35:40;3.83;;;2.53;;
79243;SDS011;68672;42.676;23.356;2023-05-14T01:38:06;2.88;;;2.30;;
79243;SDS011;68672;42.676;23.356;2023-05-14T01:40:35;3.65;;;2.72;;
79243;SDS011;68672;42.676;23.356;2023-05-14T01:43:01;3.53;;;2.60;;
79243;SDS011;68672;42.676;23.356;2023-05-14T01:45:28;3.10;;;2.50;;
79243;SDS011;68672;42.676;23.356;2023-05-14T01:47:55;3.08;;;2.28;;
79243;SDS011;68672;42.676;23.356;2023-05-14T01:50:21;3.72;;;2.63;;
79243;SDS011;68672;42.676;23.356;2023-05-14T01:52:48;4.57;;;2.70;;
79243;SDS011;68672;42.676;23.356;2023-05-14T01:55:17;3.15;;;2.28;;
79243;SDS011;68672;42.676;23.356;2023-05-14T01:57:42;2.22;;;1.90;;
79243;SDS011;68672;42.676;23.356;2023-05-14T02:00:08;3.08;;;1.98;;
79243;SDS011;68672;42.676;23.356;2023-05-14T02:02:33;3.20;;;2.40;;
79243;SDS011;68672;42.676;23.356;2023-05-14T02:04:59;2.75;;;2.20;;
79243;SDS011;68672;42.676;23.356;2023-05-14T02:07:24;3.55;;;2.40;;
79243;SDS011;68672;42.676;23.356;2023-05-14T02:09:50;3.38;;;2.85;;
79243;SDS011;68672;42.676;23.356;2023-05-14T02:12:15;3.15;;;2.30;;
79243;SDS011;68672;42.676;23.356;2023-05-14T02:14:41;4.07;;;2.58;;
79243;SDS011;68672;42.676;23.356;2023-05-14T02:17:09;3.30;;;2.30;;
79243;SDS011;68672;42.676;23.356;2023-05-14T02:19:34;2.67;;;2.13;;
79243;SDS011;68672;42.676;23.356;2023-05-14T02:21:59;3.22;;;2.55;;
79243;SDS011;68672;42.676;23.356;2023-05-14T02:24:28;3.25;;;2.47;;
79243;SDS011;68672;42.676;23.356;2023-05-14T02:26:53;4.13;;;2.47;;
79243;SDS011;68672;42.676;23.356;2023-05-14T02:29:19;3.33;;;2.80;;
79243;SDS011;68672;42.676;23.356;2023-05-14T02:31:46;3.20;;;2.85;;
79243;SDS011;68672;42.676;23.356;2023-05-14T02:34:12;3.22;;;2.70;;
79243;SDS011;68672;42.676;23.356;2023-05-14T02:36:37;4.10;;;2.90;;
79243;SDS011;68672;42.676;23.356;2023-05-14T02:39:03;4.20;;;2.67;;
79243;SDS011;68672;42.676;23.356;2023-05-14T02:41:29;2.97;;;2.33;;
79243;SDS011;68672;42.676;23.356;2023-05-14T02:43:54;3.72;;;2.30;;
79243;SDS011;68672;42.676;23.356;2023-05-14T02:46:19;3.95;;;2.30;;
79243;SDS011;68672;42.676;23.356;2023-05-14T02:48:45;2.83;;;2.42;;
79243;SDS011;68672;42.676;23.356;2023-05-14T02:51:10;4.30;;;2.63;;
79243;SDS011;68672;42.676;23.356;2023-05-14T02:53:36;3.97;;;2.88;;
79243;SDS011;68672;42.676;23.356;2023-05-14T02:56:06;5.05;;;2.92;;
79243;SDS011;68672;42.676;23.356;2023-05-14T02:58:32;3.13;;;2.47;;
79243;SDS011;68672;42.676;23.356;2023-05-14T03:00:58;3.95;;;2.90;;
79243;SDS011;68672;42.676;23.356;2023-05-14T03:03:23;3.35;;;2.70;;
79243;SDS011;68672;42.676;23.356;2023-05-14T03:05:49;2.90;;;2.55;;
79243;SDS011;68672;42.676;23.356;2023-05-14T03:08:17;3.08;;;2.50;;
79243;SDS011;68672;42.676;23.356;2023-05-14T03:10:43;3.15;;;2.20;;
79243;SDS011;68672;42.676;23.356;2023-05-14T03:13:08;3.42;;;2.65;;
79243;SDS011;68672;42.676;23.356;2023-05-14T03:15:33;2.88;;;2.20;;
79243;SDS011;68672;42.676;23.356;2023-05-14T03:18:02;2.58;;;2.30;;
79243;SDS011;68672;42.676;23.356;2023-05-14T03:20:30;3.50;;;2.58;;
79243;SDS011;68672;42.676;23.356;2023-05-14T03:22:56;4.18;;;2.63;;
79243;SDS011;68672;42.676;23.356;2023-05-14T03:25:21;5.72;;;2.95;;
79243;SDS011;68672;42.676;23.356;2023-05-14T03:27:46;3.03;;;2.25;;
79243;SDS011;68672;42.676;23.356;2023-05-14T03:30:12;3.92;;;2.25;;
79243;SDS011;68672;42.676;23.356;2023-05-14T03:32:38;3.08;;;2.20;;
79243;SDS011;68672;42.676;23.356;2023-05-14T03:35:03;3.97;;;2.38;;
79243;SDS011;68672;42.676;23.356;2023-05-14T03:37:29;2.95;;;2.50;;
79243;SDS011;68672;42.676;23.356;2023-05-14T03:40:00;3.53;;;2.65;;
79243;SDS011;68672;42.676;23.356;2023-05-14T03:42:25;4.63;;;2.20;;
79243;SDS011;68672;42.676;23.356;2023-05-14T03:44:51;3.30;;;2.63;;
79243;SDS011;68672;42.676;23.356;2023-05-14T03:47:16;3.40;;;2.45;;
79243;SDS011;68672;42.676;23.356;2023-05-14T03:49:42;3.88;;;2.33;;
79243;SDS011;68672;42.676;23.356;2023-05-14T03:52:10;3.53;;;2.50;;
79243;SDS011;68672;42.676;23.356;2023-05-14T03:54:35;3.03;;;2.75;;
79243;SDS011;68672;42.676;23.356;2023-05-14T03:57:04;3.17;;;2.13;;
79243;SDS011;68672;42.676;23.356;2023-05-14T03:59:30;3.55;;;2.75;;
79243;SDS011;68672;42.676;23.356;2023-05-14T04:01:55;4.10;;;2.47;;
79243;SDS011;68672;42.676;23.356;2023-05-14T04:04:21;2.83;;;2.53;;
79243;SDS011;68672;42.676;23.356;2023-05-14T04:06:46;3.22;;;2.58;;
79243;SDS011;68672;42.676;23.356;2023-05-14T04:09:11;4.10;;;2.75;;
79243;SDS011;68672;42.676;23.356;2023-05-14T04:11:37;3.17;;;2.35;;
79243;SDS011;68672;42.676;23.356;2023-05-14T04:14:02;2.40;;;2.15;;
79243;SDS011;68672;42.676;23.356;2023-05-14T04:16:28;3.30;;;2.70;;
79243;SDS011;68672;42.676;23.356;2023-05-14T04:18:53;3.00;;;2.25;;
79243;SDS011;68672;42.676;23.356;2023-05-14T04:21:19;2.58;;;2.20;;
79243;SDS011;68672;42.676;23.356;2023-05-14T04:23:44;2.38;;;2.17;;
79243;SDS011;68672;42.676;23.356;2023-05-14T04:26:10;3.58;;;2.55;;
79243;SDS011;68672;42.676;23.356;2023-05-14T04:28:35;8.15;;;2.63;;
79243;SDS011;68672;42.676;23.356;2023-05-14T04:31:01;3.55;;;2.63;;
79243;SDS011;68672;42.676;23.356;2023-05-14T04:33:26;3.13;;;2.45;;
79243;SDS011;68672;42.676;23.356;2023-05-14T04:35:52;2.92;;;2.33;;
79243;SDS011;68672;42.676;23.356;2023-05-14T04:38:19;3.35;;;2.55;;
79243;SDS011;68672;42.676;23.356;2023-05-14T04:40:45;5.78;;;2.92;;
79243;SDS011;68672;42.676;23.356;2023-05-14T04:43:10;2.90;;;2.30;;
79243;SDS011;68672;42.676;23.356;2023-05-14T04:45:35;5.97;;;2.50;;
79243;SDS011;68672;42.676;23.356;2023-05-14T04:48:02;3.05;;;2.42;;
79243;SDS011;68672;42.676;23.356;2023-05-14T04:50:28;3.42;;;2.53;;
79243;SDS011;68672;42.676;23.356;2023-05-14T04:52:56;2.55;;;2.28;;
79243;SDS011;68672;42.676;23.356;2023-05-14T04:55:25;3.22;;;2.40;;
79243;SDS011;68672;42.676;23.356;2023-05-14T04:57:50;2.42;;;2.20;;
79243;SDS011;68672;42.676;23.356;2023-05-14T05:00:16;4.25;;;2.45;;
79243;SDS011;68672;42.676;23.356;2023-05-14T05:02:42;3.35;;;2.50;;
79243;SDS011;68672;42.676;23.356;2023-05-14T05:05:07;4.63;;;2.60;;
79243;SDS011;68672;42.676;23.356;2023-05-14T05:07:33;3.17;;;2.42;;
79243;SDS011;68672;42.676;23.356;2023-05-14T05:10:04;2.97;;;2.50;;
79243;SDS011;68672;42.676;23.356;2023-05-14T05:12:30;3.92;;;2.58;;
79243;SDS011;68672;42.676;23.356;2023-05-14T05:14:56;4.22;;;2.88;;
79243;SDS011;68672;42.676;23.356;2023-05-14T05:17:24;3.08;;;2.50;;
79243;SDS011;68672;42.676;23.356;2023-05-14T05:19:50;3.22;;;2.58;;
79243;SDS011;68672;42.676;23.356;2023-05-14T05:22:15;6.28;;;3.25;;
79243;SDS011;68672;42.676;23.356;2023-05-14T05:24:41;5.35;;;3.33;;
79243;SDS011;68672;42.676;23.356;2023-05-14T05:27:09;4.28;;;3.42;;
79243;SDS011;68672;42.676;23.356;2023-05-14T05:29:34;4.55;;;2.88;;
79243;SDS011;68672;42.676;23.356;2023-05-14T05:32:02;3.38;;;2.50;;
79243;SDS011;68672;42.676;23.356;2023-05-14T05:34:28;4.30;;;3.00;;
79243;SDS011;68672;42.676;23.356;2023-05-14T05:36:53;6.10;;;2.80;;
79243;SDS011;68672;42.676;23.356;2023-05-14T05:39:19;4.10;;;3.00;;
79243;SDS011;68672;42.676;23.356;2023-05-14T05:41:47;4.00;;;3.17;;
79243;SDS011;68672;42.676;23.356;2023-05-14T05:44:13;5.00;;;3.50;;
79243;SDS011;68672;42.676;23.356;2023-05-14T05:46:38;4.38;;;3.03;;
79243;SDS011;68672;42.676;23.356;2023-05-14T05:49:03;3.92;;;3.53;;
79243;SDS011;68672;42.676;23.356;2023-05-14T05:51:29;4.95;;;3.53;;
79243;SDS011;68672;42.676;23.356;2023-05-14T05:53:54;3.90;;;3.13;;
79243;SDS011;68672;42.676;23.356;2023-05-14T05:56:20;3.42;;;3.00;;
79243;SDS011;68672;42.676;23.356;2023-05-14T05:58:46;3.90;;;3.08;;
79243;SDS011;68672;42.676;23.356;2023-05-14T06:01:11;4.10;;;3.35;;
79243;SDS011;68672;42.676;23.356;2023-05-14T06:03:36;5.03;;;3.55;;
79243;SDS011;68672;42.676;23.356;2023-05-14T06:06:02;4.43;;;3.10;;
79243;SDS011;68672;42.676;23.356;2023-05-14T06:08:27;4.32;;;3.70;;
79243;SDS011;68672;42.676;23.356;2023-05-14T06:10:53;4.05;;;3.35;;
79243;SDS011;68672;42.676;23.356;2023-05-14T06:13:18;5.70;;;3.55;;
79243;SDS011;68672;42.676;23.356;2023-05-14T06:15:44;3.17;;;2.72;;
79243;SDS011;68672;42.676;23.356;2023-05-14T06:18:09;4.05;;;3.38;;
79243;SDS011;68672;42.676;23.356;2023-05-14T06:20:35;3.45;;;3.15;;
79243;SDS011;68672;42.676;23.356;2023-05-14T06:23:01;4.80;;;2.92;;
79243;SDS011;68672;42.676;23.356;2023-05-14T06:25:26;3.60;;;3.00;;
79243;SDS011;68672;42.676;23.356;2023-05-14T06:27:54;3.60;;;3.30;;
79243;SDS011;68672;42.676;23.356;2023-05-14T06:30:22;4.80;;;3.40;;
79243;SDS011;68672;42.676;23.356;2023-05-14T06:32:48;4.85;;;3.85;;
79243;SDS011;68672;42.676;23.356;2023-05-14T06:35:13;5.07;;;3.80;;
79243;SDS011;68672;42.676;23.356;2023-05-14T06:37:41;6.57;;;3.20;;
79243;SDS011;68672;42.676;23.356;2023-05-14T06:40:07;4.95;;;3.40;;
79243;SDS011;68672;42.676;23.356;2023-05-14T06:42:32;4.53;;;3.72;;
79243;SDS011;68672;42.676;23.356;2023-05-14T06:44:58;3.92;;;3.35;;
79243;SDS011;68672;42.676;23.356;2023-05-14T06:47:23;4.68;;;3.78;;
79243;SDS011;68672;42.676;23.356;2023-05-14T06:49:49;5.30;;;4.05;;
79243;SDS011;68672;42.676;23.356;2023-05-14T06:52:14;4.93;;;4.18;;
79243;SDS011;68672;42.676;23.356;2023-05-14T06:54:42;8.68;;;3.67;;
79243;SDS011;68672;42.676;23.356;2023-05-14T06:57:08;6.00;;;4.13;;
79243;SDS011;68672;42.676;23.356;2023-05-14T06:59:33;7.72;;;4.00;;
79243;SDS011;68672;42.676;23.356;2023-05-14T07:02:02;11.20;;;6.70;;
79243;SDS011;68672;42.676;23.356;2023-05-14T07:04:27;5.53;;;4.10;;
79243;SDS011;68672;42.676;23.356;2023-05-14T07:06:52;6.25;;;4.40;;
79243;SDS011;68672;42.676;23.356;2023-05-14T07:09:18;6.10;;;4.60;;
79243;SDS011;68672;42.676;23.356;2023-05-14T07:11:43;6.53;;;5.47;;
79243;SDS011;68672;42.676;23.356;2023-05-14T07:14:09;6.10;;;4.28;;
79243;SDS011;68672;42.676;23.356;2023-05-14T07:16:34;7.47;;;4.70;;
79243;SDS011;68672;42.676;23.356;2023-05-14T07:19:00;5.40;;;4.70;;
79243;SDS011;68672;42.676;23.356;2023-05-14T07:21:25;5.85;;;4.00;;
79243;SDS011;68672;42.676;23.356;2023-05-14T07:23:51;5.13;;;3.92;;
79243;SDS011;68672;42.676;23.356;2023-05-14T07:26:17;6.32;;;4.85;;
79243;SDS011;68672;42.676;23.356;2023-05-14T07:28:42;6.43;;;3.60;;
79243;SDS011;68672;42.676;23.356;2023-05-14T07:31:08;6.10;;;3.97;;
79243;SDS011;68672;42.676;23.356;2023-05-14T07:33:36;5.95;;;4.00;;
79243;SDS011;68672;42.676;23.356;2023-05-14T07:36:02;4.95;;;4.38;;
79243;SDS011;68672;42.676;23.356;2023-05-14T07:38:31;5.93;;;4.07;;
79243;SDS011;68672;42.676;23.356;2023-05-14T07:40:56;5.47;;;3.90;;
79243;SDS011;68672;42.676;23.356;2023-05-14T07:43:22;4.85;;;3.80;;
79243;SDS011;68672;42.676;23.356;2023-05-14T07:45:47;5.00;;;3.92;;
79243;SDS011;68672;42.676;23.356;2023-05-14T07:48:16;4.70;;;3.97;;
79243;SDS011;68672;42.676;23.356;2023-05-14T07:50:41;5.35;;;3.83;;
79243;SDS011;68672;42.676;23.356;2023-05-14T07:53:07;5.65;;;4.03;;
79243;SDS011;68672;42.676;23.356;2023-05-14T07:55:32;4.10;;;3.33;;
79243;SDS011;68672;42.676;23.356;2023-05-14T07:57:57;5.55;;;4.20;;
79243;SDS011;68672;42.676;23.356;2023-05-14T08:00:23;5.75;;;4.25;;
79243;SDS011;68672;42.676;23.356;2023-05-14T08:02:48;4.38;;;3.35;;
79243;SDS011;68672;42.676;23.356;2023-05-14T08:05:14;5.97;;;4.07;;
79243;SDS011;68672;42.676;23.356;2023-05-14T08:07:39;6.03;;;4.78;;
79243;SDS011;68672;42.676;23.356;2023-05-14T08:10:05;7.32;;;4.32;;
79243;SDS011;68672;42.676;23.356;2023-05-14T08:12:32;6.55;;;4.35;;
79243;SDS011;68672;42.676;23.356;2023-05-14T08:14:57;4.95;;;4.10;;
79243;SDS011;68672;42.676;23.356;2023-05-14T08:17:23;6.28;;;3.53;;
79243;SDS011;68672;42.676;23.356;2023-05-14T08:19:48;6.18;;;4.05;;
79243;SDS011;68672;42.676;23.356;2023-05-14T08:22:13;5.47;;;4.05;;
79243;SDS011;68672;42.676;23.356;2023-05-14T08:24:39;4.72;;;4.03;;
79243;SDS011;68672;42.676;23.356;2023-05-14T08:27:06;4.30;;;3.47;;
79243;SDS011;68672;42.676;23.356;2023-05-14T08:29:32;4.78;;;3.75;;
79243;SDS011;68672;42.676;23.356;2023-05-14T08:31:57;5.28;;;3.78;;
79243;SDS011;68672;42.676;23.356;2023-05-14T08:34:23;5.97;;;4.65;;
79243;SDS011;68672;42.676;23.356;2023-05-14T08:36:48;5.22;;;4.55;;
79243;SDS011;68672;42.676;23.356;2023-05-14T08:39:13;6.97;;;5.07;;
79243;SDS011;68672;42.676;23.356;2023-05-14T08:41:39;6.28;;;4.93;;
79243;SDS011;68672;42.676;23.356;2023-05-14T08:44:12;7.78;;;4.65;;
79243;SDS011;68672;42.676;23.356;2023-05-14T08:46:38;7.13;;;4.80;;
79243;SDS011;68672;42.676;23.356;2023-05-14T08:51:45;5.10;;;4.65;;
79243;SDS011;68672;42.676;23.356;2023-05-14T08:54:14;6.85;;;5.15;;
79243;SDS011;68672;42.676;23.356;2023-05-14T08:56:43;5.85;;;4.60;;
79243;SDS011;68672;42.676;23.356;2023-05-14T08:59:12;5.75;;;5.20;;
79243;SDS011;68672;42.676;23.356;2023-05-14T09:01:38;5.65;;;4.10;;
79243;SDS011;68672;42.676;23.356;2023-05-14T09:04:07;9.07;;;4.90;;
79243;SDS011;68672;42.676;23.356;2023-05-14T09:06:35;6.72;;;4.85;;
79243;SDS011;68672;42.676;23.356;2023-05-14T09:09:04;4.78;;;4.25;;
79243;SDS011;68672;42.676;23.356;2023-05-14T09:11:29;6.65;;;4.93;;
79243;SDS011;68672;42.676;23.356;2023-05-14T09:13:55;6.30;;;4.45;;
79243;SDS011;68672;42.676;23.356;2023-05-14T09:16:20;7.40;;;5.03;;
79243;SDS011;68672;42.676;23.356;2023-05-14T09:18:47;5.43;;;4.40;;
79243;SDS011;68672;42.676;23.356;2023-05-14T09:21:13;8.10;;;4.80;;
79243;SDS011;68672;42.676;23.356;2023-05-14T09:23:43;6.93;;;4.50;;
79243;SDS011;68672;42.676;23.356;2023-05-14T09:26:22;6.68;;;4.35;;
79243;SDS011;68672;42.676;23.356;2023-05-14T09:28:52;7.65;;;5.10;;
79243;SDS011;68672;42.676;23.356;2023-05-14T09:31:18;8.48;;;5.40;;
79243;SDS011;68672;42.676;23.356;2023-05-14T09:33:48;8.75;;;5.78;;
79243;SDS011;68672;42.676;23.356;2023-05-14T09:36:17;6.90;;;4.53;;
79243;SDS011;68672;42.676;23.356;2023-05-14T09:38:43;7.22;;;4.95;;
79243;SDS011;68672;42.676;23.356;2023-05-14T09:41:09;9.38;;;5.57;;
79243;SDS011;68672;42.676;23.356;2023-05-14T09:43:34;6.40;;;4.90;;
79243;SDS011;68672;42.676;23.356;2023-05-14T09:46:00;9.55;;;4.80;;
79243;SDS011;68672;42.676;23.356;2023-05-14T09:48:25;6.10;;;5.00;;
79243;SDS011;68672;42.676;23.356;2023-05-14T09:50:51;5.72;;;5.10;;
79243;SDS011;68672;42.676;23.356;2023-05-14T09:53:17;6.60;;;5.10;;
79243;SDS011;68672;42.676;23.356;2023-05-14T09:55:42;5.65;;;4.50;;
79243;SDS011;68672;42.676;23.356;2023-05-14T09:58:09;7.35;;;5.03;;
79243;SDS011;68672;42.676;23.356;2023-05-14T10:00:34;6.28;;;4.63;;
79243;SDS011;68672;42.676;23.356;2023-05-14T10:03:04;6.68;;;5.65;;
79243;SDS011;68672;42.676;23.356;2023-05-14T10:05:35;6.97;;;4.75;;
79243;SDS011;68672;42.676;23.356;2023-05-14T10:08:23;7.45;;;5.38;;
79243;SDS011;68672;42.676;23.356;2023-05-14T10:10:52;9.32;;;5.07;;
79243;SDS011;68672;42.676;23.356;2023-05-14T10:13:19;12.18;;;5.05;;
79243;SDS011;68672;42.676;23.356;2023-05-14T10:15:53;5.45;;;4.20;;
79243;SDS011;68672;42.676;23.356;2023-05-14T10:18:26;6.45;;;4.57;;
79243;SDS011;68672;42.676;23.356;2023-05-14T10:21:03;6.50;;;5.22;;
79243;SDS011;68672;42.676;23.356;2023-05-14T10:23:32;5.85;;;4.45;;
79243;SDS011;68672;42.676;23.356;2023-05-14T10:26:01;10.57;;;4.60;;
79243;SDS011;68672;42.676;23.356;2023-05-14T10:28:28;5.50;;;4.25;;
79243;SDS011;68672;42.676;23.356;2023-05-14T10:30:54;6.05;;;5.07;;
79243;SDS011;68672;42.676;23.356;2023-05-14T10:33:19;7.75;;;5.20;;
79243;SDS011;68672;42.676;23.356;2023-05-14T10:35:55;7.70;;;5.57;;
79243;SDS011;68672;42.676;23.356;2023-05-14T10:38:26;8.23;;;6.15;;
79243;SDS011;68672;42.676;23.356;2023-05-14T10:40:55;7.35;;;6.22;;
79243;SDS011;68672;42.676;23.356;2023-05-14T10:43:23;11.07;;;7.63;;
79243;SDS011;68672;42.676;23.356;2023-05-14T10:45:50;8.88;;;6.45;;
79243;SDS011;68672;42.676;23.356;2023-05-14T10:48:19;10.30;;;6.53;;
79243;SDS011;68672;42.676;23.356;2023-05-14T10:50:48;6.57;;;5.50;;
79243;SDS011;68672;42.676;23.356;2023-05-14T10:53:15;5.80;;;5.07;;
79243;SDS011;68672;42.676;23.356;2023-05-14T10:55:41;6.03;;;4.95;;
79243;SDS011;68672;42.676;23.356;2023-05-14T10:58:07;5.55;;;5.05;;
79243;SDS011;68672;42.676;23.356;2023-05-14T11:00:35;12.05;;;8.10;;
79243;SDS011;68672;42.676;23.356;2023-05-14T11:03:05;6.47;;;5.68;;
79243;SDS011;68672;42.676;23.356;2023-05-14T11:05:31;9.93;;;6.40;;
79243;SDS011;68672;42.676;23.356;2023-05-14T11:07:58;7.43;;;5.78;;
79243;SDS011;68672;42.676;23.356;2023-05-14T11:10:26;7.13;;;5.45;;
79243;SDS011;68672;42.676;23.356;2023-05-14T11:12:56;6.68;;;5.22;;
79243;SDS011;68672;42.676;23.356;2023-05-14T11:15:23;7.18;;;5.45;;
79243;SDS011;68672;42.676;23.356;2023-05-14T11:17:53;6.93;;;5.53;;
79243;SDS011;68672;42.676;23.356;2023-05-14T11:20:19;9.60;;;6.57;;
79243;SDS011;68672;42.676;23.356;2023-05-14T11:22:45;7.43;;;6.00;;
79243;SDS011;68672;42.676;23.356;2023-05-14T11:25:12;6.07;;;4.65;;
79243;SDS011;68672;42.676;23.356;2023-05-14T11:27:39;8.75;;;5.57;;
79243;SDS011;68672;42.676;23.356;2023-05-14T11:30:13;6.97;;;5.65;;
79243;SDS011;68672;42.676;23.356;2023-05-14T11:32:43;6.85;;;5.15;;
79243;SDS011;68672;42.676;23.356;2023-05-14T11:35:12;5.72;;;4.88;;
79243;SDS011;68672;42.676;23.356;2023-05-14T11:37:39;6.95;;;5.63;;
79243;SDS011;68672;42.676;23.356;2023-05-14T11:40:08;6.38;;;5.43;;
79243;SDS011;68672;42.676;23.356;2023-05-14T11:42:38;4.90;;;4.15;;
79243;SDS011;68672;42.676;23.356;2023-05-14T11:45:04;6.70;;;5.22;;
79243;SDS011;68672;42.676;23.356;2023-05-14T11:47:31;4.38;;;3.88;;
79243;SDS011;68672;42.676;23.356;2023-05-14T11:49:56;7.70;;;5.03;;
79243;SDS011;68672;42.676;23.356;2023-05-14T11:52:26;6.07;;;4.78;;
79243;SDS011;68672;42.676;23.356;2023-05-14T11:54:51;6.97;;;5.13;;
79243;SDS011;68672;42.676;23.356;2023-05-14T11:57:20;6.78;;;5.32;;
79243;SDS011;68672;42.676;23.356;2023-05-14T11:59:46;7.78;;;5.40;;
79243;SDS011;68672;42.676;23.356;2023-05-14T12:02:14;8.23;;;5.30;;
79243;SDS011;68672;42.676;23.356;2023-05-14T12:04:42;6.65;;;5.47;;
79243;SDS011;68672;42.676;23.356;2023-05-14T12:07:08;6.82;;;5.30;;
79243;SDS011;68672;42.676;23.356;2023-05-14T12:09:40;6.68;;;5.18;;
79243;SDS011;68672;42.676;23.356;2023-05-14T12:12:24;6.15;;;4.47;;
79243;SDS011;68672;42.676;23.356;2023-05-14T12:14:49;6.22;;;5.32;;
79243;SDS011;68672;42.676;23.356;2023-05-14T12:17:18;7.90;;;5.35;;
79243;SDS011;68672;42.676;23.356;2023-05-14T12:19:46;5.28;;;4.13;;
79243;SDS011;68672;42.676;23.356;2023-05-14T12:22:13;5.32;;;4.40;;
79243;SDS011;68672;42.676;23.356;2023-05-14T12:24:41;5.20;;;4.68;;
79243;SDS011;68672;42.676;23.356;2023-05-14T12:27:20;7.05;;;5.40;;
79243;SDS011;68672;42.676;23.356;2023-05-14T12:29:57;6.80;;;4.93;;
79243;SDS011;68672;42.676;23.356;2023-05-14T12:32:34;7.80;;;6.03;;
79243;SDS011;68672;42.676;23.356;2023-05-14T12:35:00;6.47;;;5.07;;
79243;SDS011;68672;42.676;23.356;2023-05-14T12:37:26;5.88;;;5.28;;
79243;SDS011;68672;42.676;23.356;2023-05-14T12:39:51;7.68;;;5.55;;
79243;SDS011;68672;42.676;23.356;2023-05-14T12:42:17;5.38;;;4.22;;
79243;SDS011;68672;42.676;23.356;2023-05-14T12:44:42;7.38;;;5.38;;
79243;SDS011;68672;42.676;23.356;2023-05-14T12:47:08;6.38;;;5.05;;
79243;SDS011;68672;42.676;23.356;2023-05-14T12:49:33;7.78;;;6.03;;
79243;SDS011;68672;42.676;23.356;2023-05-14T12:51:59;5.43;;;4.80;;
79243;SDS011;68672;42.676;23.356;2023-05-14T12:54:24;9.25;;;6.18;;
79243;SDS011;68672;42.676;23.356;2023-05-14T12:56:50;6.70;;;5.40;;
79243;SDS011;68672;42.676;23.356;2023-05-14T12:59:15;7.35;;;6.63;;
79243;SDS011;68672;42.676;23.356;2023-05-14T13:01:41;7.13;;;5.78;;
79243;SDS011;68672;42.676;23.356;2023-05-14T13:04:06;7.82;;;5.45;;
79243;SDS011;68672;42.676;23.356;2023-05-14T13:06:36;7.25;;;5.78;;
79243;SDS011;68672;42.676;23.356;2023-05-14T13:09:02;8.38;;;6.57;;
79243;SDS011;68672;42.676;23.356;2023-05-14T13:11:28;7.00;;;5.82;;
79243;SDS011;68672;42.676;23.356;2023-05-14T13:13:55;7.22;;;6.05;;
79243;SDS011;68672;42.676;23.356;2023-05-14T13:16:27;6.90;;;5.40;;
79243;SDS011;68672;42.676;23.356;2023-05-14T13:18:56;11.40;;;5.35;;
79243;SDS011;68672;42.676;23.356;2023-05-14T13:21:21;9.18;;;6.32;;
79243;SDS011;68672;42.676;23.356;2023-05-14T13:23:50;8.05;;;6.32;;
79243;SDS011;68672;42.676;23.356;2023-05-14T13:26:15;13.38;;;6.05;;
79243;SDS011;68672;42.676;23.356;2023-05-14T13:28:41;13.35;;;7.93;;
79243;SDS011;68672;42.676;23.356;2023-05-14T13:31:07;9.40;;;6.32;;
79243;SDS011;68672;42.676;23.356;2023-05-14T13:33:35;9.43;;;6.85;;
79243;SDS011;68672;42.676;23.356;2023-05-14T13:36:02;10.23;;;6.13;;
79243;SDS011;68672;42.676;23.356;2023-05-14T13:38:28;9.07;;;6.70;;
79243;SDS011;68672;42.676;23.356;2023-05-14T13:40:54;8.65;;;6.82;;
79243;SDS011;68672;42.676;23.356;2023-05-14T13:43:21;10.35;;;7.55;;
79243;SDS011;68672;42.676;23.356;2023-05-14T13:45:48;9.93;;;6.88;;
79243;SDS011;68672;42.676;23.356;2023-05-14T13:48:14;9.98;;;6.65;;
79243;SDS011;68672;42.676;23.356;2023-05-14T13:50:39;9.30;;;7.20;;
79243;SDS011;68672;42.676;23.356;2023-05-14T13:53:04;9.68;;;7.05;;
79243;SDS011;68672;42.676;23.356;2023-05-14T13:55:30;9.32;;;6.90;;
79243;SDS011;68672;42.676;23.356;2023-05-14T13:57:55;8.82;;;6.15;;
79243;SDS011;68672;42.676;23.356;2023-05-14T14:00:20;9.63;;;7.40;;
79243;SDS011;68672;42.676;23.356;2023-05-14T14:02:46;12.75;;;8.30;;
79243;SDS011;68672;42.676;23.356;2023-05-14T14:05:11;9.10;;;6.65;;
79243;SDS011;68672;42.676;23.356;2023-05-14T14:07:37;9.60;;;6.70;;
79243;SDS011;68672;42.676;23.356;2023-05-14T14:10:08;9.32;;;7.03;;
79243;SDS011;68672;42.676;23.356;2023-05-14T14:12:34;8.95;;;6.45;;
79243;SDS011;68672;42.676;23.356;2023-05-14T14:14:59;10.10;;;7.30;;
79243;SDS011;68672;42.676;23.356;2023-05-14T14:17:26;12.30;;;7.63;;
79243;SDS011;68672;42.676;23.356;2023-05-14T14:19:52;10.48;;;8.13;;
79243;SDS011;68672;42.676;23.356;2023-05-14T14:22:23;9.75;;;6.80;;
79243;SDS011;68672;42.676;23.356;2023-05-14T14:24:48;13.30;;;8.00;;
79243;SDS011;68672;42.676;23.356;2023-05-14T14:27:17;12.07;;;8.35;;
79243;SDS011;68672;42.676;23.356;2023-05-14T14:29:42;11.18;;;7.60;;
79243;SDS011;68672;42.676;23.356;2023-05-14T14:32:07;8.05;;;6.70;;
79243;SDS011;68672;42.676;23.356;2023-05-14T14:34:33;8.93;;;6.88;;
79243;SDS011;68672;42.676;23.356;2023-05-14T14:36:58;10.02;;;7.88;;
79243;SDS011;68672;42.676;23.356;2023-05-14T14:39:24;9.65;;;7.75;;
79243;SDS011;68672;42.676;23.356;2023-05-14T14:41:50;11.43;;;6.82;;